createdAt,value
2022-11-18T00:00:27.572Z,95.20
2022-11-18T00:05:29.849Z,95.50
2022-11-18T00:10:32.310Z,95.80
2022-11-18T00:15:34.699Z,95.90
2022-11-18T00:20:37.010Z,95.90
2022-11-18T00:25:39.318Z,95.60
2022-11-18T00:30:41.613Z,95.70
2022-11-18T00:35:43.932Z,95.60
2022-11-18T00:40:46.617Z,95.60
2022-11-18T00:45:48.922Z,96.00
2022-11-18T00:50:53.518Z,95.20
2022-11-18T00:55:55.773Z,95.10
2022-11-18T01:00:58.233Z,94.50
2022-11-18T01:06:00.643Z,94.50
2022-11-18T01:11:21.709Z,94.30
2022-11-18T01:16:26.054Z,94.40
2022-11-18T01:21:31.339Z,94.20
2022-11-18T01:26:33.727Z,94.20
2022-11-18T01:31:45.677Z,94.60
2022-11-18T01:36:59.964Z,94.70
2022-11-18T01:42:02.656Z,94.50
2022-11-18T01:47:04.987Z,94.50
2022-11-18T01:52:08.592Z,94.10
2022-11-18T01:57:18.329Z,94.70
2022-11-18T02:02:22.548Z,94.30
2022-11-18T02:07:25.498Z,94.40
2022-11-18T02:12:27.890Z,94.90
2022-11-18T02:17:43.517Z,95.60
2022-11-18T02:23:12.216Z,96.00
2022-11-18T02:28:35.779Z,96.80
2022-11-18T02:33:56.539Z,97.70
2022-11-18T02:39:07.477Z,97.60
2022-11-18T02:44:14.073Z,98.00
2022-11-18T02:49:22.268Z,98.40
2022-11-18T02:54:28.230Z,98.30
2022-11-18T02:59:30.927Z,98.50
2022-11-18T03:04:35.620Z,98.60
2022-11-18T03:09:40.796Z,98.50
2022-11-18T03:14:59.896Z,99.50
2022-11-18T03:20:11.305Z,99.40
2022-11-18T03:25:34.436Z,99.50
2022-11-18T03:30:44.326Z,99.70
2022-11-18T03:35:49.981Z,99.80
2022-11-18T03:40:58.652Z,99.90
2022-11-18T03:46:04.284Z,99.90
2022-11-18T03:51:10.066Z,99.90
2022-11-18T03:56:19.381Z,99.90
2022-11-18T04:01:43.293Z,99.90
2022-11-18T04:07:11.625Z,99.90
2022-11-18T04:12:17.633Z,99.90
2022-11-18T04:17:22.629Z,99.90
2022-11-18T04:22:24.953Z,99.90
2022-11-18T04:27:27.245Z,99.90
2022-11-18T04:32:29.549Z,99.90
2022-11-18T04:37:32.041Z,99.90
2022-11-18T04:42:34.424Z,99.90
2022-11-18T04:47:37.205Z,99.70
2022-11-18T04:52:39.513Z,99.80
2022-11-18T04:57:41.821Z,99.80
2022-11-18T05:02:44.114Z,99.60
2022-11-18T05:07:46.734Z,99.60
2022-11-18T05:12:49.165Z,99.10
2022-11-18T05:17:54.818Z,98.60
2022-11-18T05:22:57.282Z,98.30
2022-11-18T05:27:59.538Z,98.90
2022-11-18T05:33:01.863Z,99.40
2022-11-18T05:38:04.125Z,99.60
2022-11-18T05:43:12.229Z,99.80
2022-11-18T05:48:14.770Z,99.90
2022-11-18T05:53:19.249Z,99.90
2022-11-18T05:58:21.567Z,99.90
2022-11-18T06:03:31.116Z,99.90
2022-11-18T06:08:39.177Z,99.90
2022-11-18T06:13:50.541Z,99.90
2022-11-18T06:18:53.219Z,99.90
2022-11-18T06:23:56.236Z,99.90
2022-11-18T06:28:58.713Z,99.90
2022-11-18T06:34:01.176Z,99.90
2022-11-18T06:39:05.429Z,99.90
2022-11-18T06:44:07.755Z,99.90
2022-11-18T06:49:10.441Z,99.90
2022-11-18T06:54:12.836Z,99.90
2022-11-18T06:59:15.409Z,99.50
2022-11-18T07:04:17.978Z,98.20
2022-11-18T07:09:20.470Z,98.20
2022-11-18T07:14:23.051Z,98.30
2022-11-18T07:19:25.399Z,97.60
2022-11-18T07:24:27.871Z,97.50
2022-11-18T07:29:30.183Z,97.10
2022-11-18T07:34:32.612Z,97.30
2022-11-18T07:39:34.863Z,96.40
2022-11-18T07:44:38.507Z,95.70
2022-11-18T07:49:41.005Z,94.60
2022-11-18T07:54:43.288Z,93.10
2022-11-18T07:59:45.630Z,93.30
2022-11-18T08:04:48.010Z,93.00
2022-11-18T08:09:50.429Z,92.70
2022-11-18T08:14:52.874Z,92.70
2022-11-18T08:19:55.305Z,92.40
2022-11-18T08:24:57.607Z,92.40
2022-11-18T08:29:59.980Z,91.90
2022-11-18T08:35:06.610Z,91.90
2022-11-18T08:40:12.301Z,91.60
2022-11-18T08:45:14.697Z,91.30
2022-11-18T08:50:17.594Z,91.10
2022-11-18T08:55:19.872Z,91.10
2022-11-18T09:00:22.151Z,91.20
2022-11-18T09:05:24.500Z,91.60
2022-11-18T09:10:26.839Z,91.20
2022-11-18T09:15:29.784Z,90.90
2022-11-18T09:20:32.041Z,90.80
2022-11-18T09:25:34.331Z,90.70
2022-11-18T09:30:36.650Z,90.60
2022-11-18T09:35:43.039Z,90.70
2022-11-18T09:41:12.484Z,90.50
2022-11-18T09:46:54.864Z,90.60
2022-11-18T09:52:01.873Z,90.00
2022-11-18T09:57:18.034Z,89.60
2022-11-18T10:02:46.238Z,89.40
2022-11-18T10:07:56.459Z,86.70
2022-11-18T10:13:18.690Z,86.50
2022-11-18T10:18:59.896Z,85.80
2022-11-18T10:24:27.442Z,85.70
2022-11-18T10:29:30.255Z,86.90
2022-11-18T10:34:35.740Z,86.00
2022-11-18T10:39:56.851Z,85.30
2022-11-18T10:45:22.889Z,85.80
2022-11-18T10:50:34.830Z,83.40
2022-11-18T10:55:37.457Z,82.20
2022-11-18T11:00:49.239Z,82.20
2022-11-18T11:06:23.784Z,82.60
2022-11-18T11:11:40.447Z,83.60
2022-11-18T11:17:12.412Z,83.10
2022-11-18T11:22:15.955Z,82.70
2022-11-18T11:33:15.137Z,83.50
2022-11-18T11:38:22.338Z,83.20
2022-11-18T11:43:40.786Z,83.30
2022-11-18T11:49:17.102Z,82.80
2022-11-18T11:54:29.317Z,82.50
2022-11-18T11:59:47.104Z,77.80
2022-11-18T12:05:02.627Z,76.70
2022-11-18T12:10:38.066Z,74.50
2022-11-18T12:15:59.021Z,73.40
2022-11-18T12:21:01.435Z,75.50
2022-11-18T12:26:09.221Z,77.00
2022-11-18T12:31:23.252Z,79.80
2022-11-18T12:36:30.146Z,80.00
2022-11-18T12:42:00.052Z,81.50
2022-11-18T12:47:03.836Z,82.90
2022-11-18T12:52:31.698Z,80.70
2022-11-18T12:57:34.688Z,81.80
2022-11-18T13:02:37.332Z,80.60
2022-11-18T13:08:04.575Z,79.00
2022-11-18T13:13:33.160Z,79.10
2022-11-18T13:18:50.738Z,79.10
2022-11-18T13:24:01.114Z,78.40
2022-11-18T13:29:20.466Z,77.40
2022-11-18T13:34:25.739Z,77.30
2022-11-18T13:39:31.254Z,78.00
2022-11-18T13:44:37.964Z,77.70
2022-11-18T13:49:50.400Z,78.60
2022-11-18T13:54:54.667Z,79.00
2022-11-18T14:00:02.038Z,79.40
2022-11-18T14:05:21.240Z,79.30
2022-11-18T14:10:50.145Z,78.90
2022-11-18T14:16:01.253Z,79.30
2022-11-18T14:21:06.039Z,79.70
2022-11-18T14:26:08.729Z,81.70
2022-11-18T14:31:19.704Z,81.40
2022-11-18T14:36:22.179Z,80.90
2022-11-18T14:41:45.010Z,81.00
2022-11-18T14:46:55.784Z,80.80
2022-11-18T14:51:58.831Z,80.70
2022-11-18T14:57:04.318Z,81.00
2022-11-18T15:02:14.664Z,81.00
2022-11-18T15:07:23.561Z,81.20
2022-11-18T15:12:27.066Z,81.50
2022-11-18T15:17:29.826Z,82.30
2022-11-18T15:22:32.278Z,82.80
2022-11-18T15:27:37.581Z,83.60
2022-11-18T15:32:41.839Z,84.60
2022-11-18T16:11:17.522Z,86.10
2022-11-18T16:27:21.509Z,87.60
2022-11-18T16:32:24.021Z,88.60
2022-11-18T16:37:26.537Z,89.00
2022-11-18T16:42:29.000Z,89.20
2022-11-18T16:47:31.353Z,90.20
2022-11-18T16:52:33.910Z,90.20
2022-11-18T16:57:36.383Z,89.90
2022-11-18T17:02:39.135Z,89.70
2022-11-18T17:07:41.779Z,89.90
2022-11-18T17:12:44.732Z,89.70
2022-11-18T17:17:47.263Z,90.00
2022-11-18T17:22:52.531Z,89.40
2022-11-18T17:27:54.912Z,89.80
2022-11-18T17:32:57.307Z,89.60
2022-11-18T17:37:59.834Z,90.00
2022-11-18T17:43:02.352Z,90.20
2022-11-18T17:48:04.836Z,90.70
2022-11-18T17:53:07.135Z,90.50
2022-11-18T17:58:10.248Z,90.30
2022-11-18T18:03:12.557Z,90.00
2022-11-18T18:08:14.909Z,90.30
2022-11-18T18:13:36.119Z,90.20
2022-11-18T18:18:38.431Z,90.30
2022-11-18T18:23:40.750Z,90.80
2022-11-18T18:28:43.143Z,90.80
2022-11-18T18:33:45.747Z,90.70
2022-11-18T18:38:48.240Z,91.20
2022-11-18T18:43:50.885Z,91.20
2022-11-18T18:48:53.669Z,91.20
2022-11-18T18:53:56.873Z,91.40
2022-11-18T18:58:59.810Z,91.50
2022-11-18T19:04:04.441Z,92.10
2022-11-18T19:09:09.226Z,92.60
2022-11-18T19:14:14.560Z,93.30
2022-11-18T19:19:41.468Z,94.10
2022-11-18T19:24:51.415Z,94.90
2022-11-18T19:29:54.097Z,95.60
2022-11-18T19:34:56.501Z,96.30
2022-11-18T19:40:05.611Z,96.80
2022-11-18T19:45:12.013Z,97.10
2022-11-18T19:50:14.359Z,97.40
2022-11-18T19:55:16.810Z,97.80
2022-11-18T20:00:19.515Z,97.70
2022-11-18T20:05:46.045Z,97.80
2022-11-18T20:10:51.061Z,97.30
2022-11-18T20:15:53.684Z,97.10
2022-11-18T20:20:56.377Z,96.90
2022-11-18T20:26:02.727Z,97.40
2022-11-18T20:31:06.905Z,97.20
2022-11-18T20:36:14.407Z,97.20
2022-11-18T20:41:17.807Z,97.20
2022-11-18T20:46:21.821Z,96.70
2022-11-18T20:51:26.517Z,96.50
2022-11-18T20:56:28.952Z,96.00
2022-11-18T21:01:33.019Z,95.90
2022-11-18T21:06:35.311Z,95.80
2022-11-18T21:11:37.864Z,95.60
2022-11-18T21:16:41.664Z,95.90
2022-11-18T21:21:52.348Z,95.30
2022-11-18T21:26:55.296Z,95.50
2022-11-18T21:32:00.578Z,95.70
2022-11-18T21:37:02.932Z,95.40
2022-11-18T21:42:05.355Z,95.60
2022-11-18T21:47:07.637Z,95.50
2022-11-18T21:52:10.064Z,95.80
2022-11-18T21:57:12.356Z,95.60
2022-11-18T22:02:15.047Z,96.00
2022-11-18T22:07:17.332Z,96.10
2022-11-18T22:12:19.704Z,96.30
2022-11-18T22:17:22.276Z,96.50
2022-11-18T22:22:24.569Z,96.70
2022-11-18T22:27:27.104Z,96.80
2022-11-18T22:32:29.397Z,96.90
2022-11-18T22:37:31.669Z,96.80
2022-11-18T22:42:49.188Z,96.90
2022-11-18T22:47:51.574Z,97.10
2022-11-18T22:52:53.928Z,96.70
2022-11-18T22:57:56.216Z,96.60
2022-11-18T23:02:58.517Z,96.80
2022-11-18T23:08:00.888Z,96.70
2022-11-18T23:13:21.658Z,96.90
2022-11-18T23:18:24.284Z,97.10
2022-11-18T23:23:27.810Z,97.00
2022-11-18T23:28:30.126Z,97.10
2022-11-18T23:33:32.798Z,97.40
2022-11-18T23:38:35.899Z,97.40
2022-11-18T23:43:39.284Z,97.30
2022-11-18T23:48:42.760Z,97.70
2022-11-18T23:53:48.233Z,97.60
2022-11-18T23:58:52.264Z,97.60
